Time;durP1;ratioP1;P1;durP2;ratioP2;P2;SDS_P1;SDS_P2;PMS_P1;PMS_P2;Temp;Humidity;BMP_temperature;BMP_pressure;BME280_temperature;BME280_humidity;BME280_pressure;Samples;Min_cycle;Max_cycle;Signal;HPM_P1;HPM_P2
2022/01/13 00:01:41;;;;;;;;;;;;;;;-0.74;100.00;102921.28;5001585;28;19951;-69
2022/01/13 00:04:24;;;;;;;;;;;;;;;-0.75;100.00;102919.56;5015744;28;20400;-70
2022/01/13 00:07:10;;;;;;;;;;;;;;;-0.86;100.00;102921.38;5001459;28;20423;-70
2022/01/13 00:09:54;;;;;;;;;;;;;;;-0.83;100.00;102918.72;5016524;28;19958;-70
2022/01/13 00:12:42;;;;;;;;;;;;;;;-0.80;100.00;102930.06;5016419;28;19920;-69
2022/01/13 00:15:39;;;;;;;;;;;;;;;-0.86;100.00;102931.84;5016087;28;19963;-70
2022/01/13 00:18:39;;;;;;;;;;;;;;;-0.91;100.00;102938.84;5003180;28;20459;-70
2022/01/13 00:24:11;;;;;;;;;;;;;;;-0.95;100.00;102944.97;5016476;28;19924;-71
2022/01/13 00:26:55;;;;;;;;;;;;;;;-1.00;100.00;102949.34;5002202;28;20393;-71
2022/01/13 00:29:42;;;;;;;;;;;;;;;-0.95;100.00;102950.22;5015609;28;19967;-69
2022/01/13 00:32:29;;;;;;;;;;;;;;;-0.95;100.00;102945.84;5015525;28;19955;-71
2022/01/13 00:35:13;;;;;;;;;;;;;;;-0.96;100.00;102953.72;5016433;28;19925;-70
2022/01/13 00:37:56;;;;;;;;;;;;;;;-1.06;100.00;102954.63;5001172;28;19940;-70
2022/01/13 00:40:40;;;;;;;;;;;;;;;-1.09;100.00;102946.78;5015679;28;19920;-70
2022/01/13 00:43:24;;;;;;;;;;;;;;;-1.16;100.00;102959.03;5015648;28;19920;-70
2022/01/13 00:46:09;;;;;;;;;;;;;;;-1.18;100.00;102970.38;5016044;28;20257;-70
2022/01/13 00:48:54;;;;;;;;;;;;;;;-1.16;100.00;102973.88;5000885;28;19924;-70
2022/01/13 00:51:38;;;;;;;;;;;;;;;-1.13;100.00;102976.47;5015331;28;19921;-70
2022/01/13 00:54:23;;;;;;;;;;;;;;;-1.11;100.00;102979.94;4986588;28;19940;-70
2022/01/13 00:57:07;;;;;;;;;;;;;;;-1.06;100.00;102965.09;5000556;28;19920;-71
2022/01/13 00:59:51;;;;;;;;;;;;;;;-1.05;100.00;102956.38;4999629;28;19940;-71
2022/01/13 01:02:34;;;;;;;;;;;;;;;-1.05;100.00;102956.38;5000468;28;19920;-71
2022/01/13 01:05:18;;;;;;;;;;;;;;;-1.07;100.00;102961.59;5000599;28;19923;-70
2022/01/13 01:08:03;;;;;;;;;;;;;;;-1.13;100.00;102963.38;5015281;28;19924;-70
2022/01/13 01:10:51;;;;;;;;;;;;;;;-1.18;100.00;102962.50;5015652;28;19920;-70
2022/01/13 01:13:36;;;;;;;;;;;;;;;-1.20;100.00;102961.66;5015599;28;19936;-70
2022/01/13 01:16:20;;;;;;;;;;;;;;;-1.22;100.00;102963.41;5000340;28;19924;-70
2022/01/13 01:19:07;;;;;;;;;;;;;;;-1.24;100.00;102975.63;4999784;28;19920;-70
2022/01/13 01:27:51;;;;;;;;;;;;;;;-1.25;100.00;102977.38;5001972;28;19996;-70
2022/01/13 01:30:42;;;;;;;;;;;;;;;-1.27;100.00;102979.13;5014463;28;20372;-70
2022/01/13 01:33:26;;;;;;;;;;;;;;;-1.28;100.00;102980.00;5001103;28;20003;-70
2022/01/13 01:36:12;;;;;;;;;;;;;;;-1.30;100.00;102976.53;5014320;28;20320;-70
2022/01/13 01:38:57;;;;;;;;;;;;;;;-1.25;100.00;102977.38;4999388;28;19937;-70
2022/01/13 01:41:44;;;;;;;;;;;;;;;-1.32;100.00;102985.25;4999766;28;20400;-70
2022/01/13 01:44:38;;;;;;;;;;;;;;;-1.29;100.00;102977.38;4985685;28;19967;-70
2022/01/13 01:47:25;;;;;;;;;;;;;;;-1.32;100.00;102977.41;5001675;28;19944;-70
2022/01/13 01:50:18;;;;;;;;;;;;;;;-1.33;100.00;102980.91;5014230;28;20291;-69
2022/01/13 01:53:02;;;;;;;;;;;;;;;-1.34;100.00;102973.94;5014856;28;19921;-70
2022/01/13 01:55:46;;;;;;;;;;;;;;;-1.35;100.00;102973.03;4986382;28;20258;-71
2022/01/13 01:58:30;;;;;;;;;;;;;;;-1.34;100.00;102977.41;5014111;28;19920;-69
2022/01/13 02:01:14;;;;;;;;;;;;;;;-1.38;100.00;102972.16;5014199;28;20467;-70
2022/01/13 02:03:58;;;;;;;;;;;;;;;-1.40;100.00;102974.81;4985752;28;19988;-70
2022/01/13 02:06:45;;;;;;;;;;;;;;;-1.45;100.00;102963.47;4999354;28;20416;-69
2022/01/13 02:09:29;;;;;;;;;;;;;;;-1.45;100.00;102965.25;4999393;28;19971;-70
2022/01/13 02:12:20;;;;;;;;;;;;;;;-1.47;100.00;102961.75;4999019;28;19924;-70
2022/01/13 02:15:27;;;;;;;;;;;;;;;-1.48;100.00;102960.00;4999800;28;19920;-70
2022/01/13 02:18:09;;;;;;;;;;;;;;;-1.50;100.00;102961.75;5002493;28;19921;-70
2022/01/13 02:20:53;;;;;;;;;;;;;;;-1.49;100.00;102955.63;5014240;28;19924;-70
2022/01/13 02:23:38;;;;;;;;;;;;;;;-1.40;100.00;102943.41;4998807;28;19940;-70
2022/01/13 02:26:22;;;;;;;;;;;;;;;-1.42;100.00;102941.66;5013879;28;19919;-70
2022/01/13 02:29:06;;;;;;;;;;;;;;;-1.46;100.00;102938.19;5014126;28;19921;-70
2022/01/13 02:31:50;;;;;;;;;;;;;;;-1.38;100.00;102940.78;5014322;28;19975;-70
2022/01/13 02:34:34;;;;;;;;;;;;;;;-1.29;100.00;102938.13;5013705;28;20017;-70
2022/01/13 02:37:18;;;;;;;;;;;;;;;-1.31;100.00;102938.16;4999595;28;20060;-70
2022/01/13 02:40:02;;;;;;;;;;;;;;;-1.35;100.00;102941.63;4985446;28;19920;-70
2022/01/13 02:42:46;;;;;;;;;;;;;;;-1.37;100.00;102937.31;5013492;28;20400;-70
2022/01/13 02:45:36;;;;;;;;;;;;;;;-1.44;100.00;102935.59;4998720;28;19963;-70
2022/01/13 02:51:07;;;;;;;;;;;;;;;-1.46;100.00;102937.34;5013889;28;19920;-70
2022/01/13 02:53:51;;;;;;;;;;;;;;;-1.41;100.00;102930.31;5013784;28;19967;-70
2022/01/13 02:56:36;;;;;;;;;;;;;;;-1.33;100.00;102929.44;5013577;28;19967;-69
2022/01/13 02:59:20;;;;;;;;;;;;;;;-1.22;100.00;102929.38;4984484;28;19935;-70
2022/01/13 03:02:04;;;;;;;;;;;;;;;-1.17;100.00;102930.25;5014001;28;19935;-70
2022/01/13 03:04:48;;;;;;;;;;;;;;;-1.15;100.00;102928.50;4985013;28;19924;-70
2022/01/13 03:07:34;;;;;;;;;;;;;;;-1.17;100.00;102920.63;4984539;28;20289;-70
2022/01/13 03:10:17;;;;;;;;;;;;;;;-1.30;100.00;102923.31;5013215;28;19920;-70
2022/01/13 03:13:02;;;;;;;;;;;;;;;-1.34;100.00;102911.13;5013631;28;19920;-70
2022/01/13 03:15:46;;;;;;;;;;;;;;;-1.33;100.00;102912.84;4985114;28;19960;-70
2022/01/13 03:18:29;;;;;;;;;;;;;;;-1.42;100.00;102908.53;4984906;28;19920;-68
2022/01/13 03:21:13;;;;;;;;;;;;;;;-1.47;100.00;102906.81;5013507;28;19920;-69
2022/01/13 03:23:58;;;;;;;;;;;;;;;-1.54;100.00;102912.94;5015734;28;19965;-69
2022/01/13 03:26:44;;;;;;;;;;;;;;;-1.63;100.00;102912.97;5003076;28;19920;-69
2022/01/13 03:29:29;;;;;;;;;;;;;;;-1.72;100.00;102920.81;5017386;28;20008;-70
2022/01/13 03:32:14;;;;;;;;;;;;;;;-1.76;100.00;102916.50;5016983;28;19960;-68
2022/01/13 03:34:57;;;;;;;;;;;;;;;-1.79;100.00;102916.47;5002013;28;19994;-70
2022/01/13 03:37:41;;;;;;;;;;;;;;;-1.79;100.00;102921.69;5001562;28;19924;-69
2022/01/13 03:40:26;;;;;;;;;;;;;;;-1.76;100.00;102916.50;4987985;28;19924;-69
2022/01/13 03:43:11;;;;;;;;;;;;;;;-1.76;100.00;102912.13;5017141;28;20001;-70
2022/01/13 03:45:54;;;;;;;;;;;;;;;-1.76;100.00;102916.50;5017064;28;19925;-69
2022/01/13 03:48:38;;;;;;;;;;;;;;;-1.74;100.00;102915.63;5001682;28;19963;-70
2022/01/13 03:51:22;;;;;;;;;;;;;;;-1.71;100.00;102920.84;5016600;28;19924;-70
2022/01/13 03:54:15;;;;;;;;;;;;;;;-1.62;100.00;102919.94;5016887;28;19921;-70
2022/01/13 03:57:18;;;;;;;;;;;;;;;-1.47;100.00;102927.75;5017512;28;19975;-69
2022/01/13 04:00:21;;;;;;;;;;;;;;;-1.50;100.00;102922.50;5016877;28;19925;-70
2022/01/13 04:03:05;;;;;;;;;;;;;;;-1.56;100.00;102925.16;5001817;28;19920;-71
2022/01/13 04:05:59;;;;;;;;;;;;;;;-1.55;100.00;102917.28;5017755;28;19924;-70
2022/01/13 04:08:47;;;;;;;;;;;;;;;-1.57;100.00;102923.41;5001934;28;20308;-71
2022/01/13 04:11:32;;;;;;;;;;;;;;;-1.55;100.00;102917.28;5001571;28;19920;-69
2022/01/13 04:14:19;;;;;;;;;;;;;;;-1.55;100.00;102919.91;5001345;28;19921;-70
2022/01/13 04:17:03;;;;;;;;;;;;;;;-1.49;100.00;102919.00;5002529;28;19924;-70
2022/01/13 04:19:47;;;;;;;;;;;;;;;-1.53;100.00;102914.69;5001755;28;19920;-69
2022/01/13 04:22:31;;;;;;;;;;;;;;;-1.52;100.00;102914.69;5016006;28;20032;-69
2022/01/13 04:25:20;;;;;;;;;;;;;;;-1.47;100.00;102914.66;5001153;28;19960;-70
2022/01/13 04:28:04;;;;;;;;;;;;;;;-1.48;100.00;102902.44;5015403;28;19927;-70
2022/01/13 04:30:50;;;;;;;;;;;;;;;-1.47;100.00;102912.06;5015469;28;19960;-70
2022/01/13 04:33:34;;;;;;;;;;;;;;;-1.50;100.00;102914.66;5015742;28;20230;-70
2022/01/13 04:36:18;;;;;;;;;;;;;;;-1.48;100.00;102921.63;5000879;28;20018;-70
2022/01/13 04:39:02;;;;;;;;;;;;;;;-1.50;100.00;102919.88;5003692;28;19920;-70
2022/01/13 04:41:48;;;;;;;;;;;;;;;-1.50;100.00;102917.28;4996720;28;20055;-71
2022/01/13 04:44:31;;;;;;;;;;;;;;;-1.50;100.00;102919.88;5020032;28;19959;-70
2022/01/13 04:47:15;;;;;;;;;;;;;;;-1.48;100.00;102923.38;5010765;28;19936;-70
2022/01/13 04:49:59;;;;;;;;;;;;;;;-1.45;100.00;102918.16;5022310;28;19920;-70
2022/01/13 04:52:43;;;;;;;;;;;;;;;-1.49;100.00;102921.63;5000710;28;19940;-69
2022/01/13 04:55:31;;;;;;;;;;;;;;;-1.46;100.00;102926.88;5015537;28;19977;-70
2022/01/13 04:58:15;;;;;;;;;;;;;;;-1.62;100.00;102922.53;5001269;28;20269;-70
2022/01/13 05:00:59;;;;;;;;;;;;;;;-1.67;100.00;102927.78;5000329;28;20388;-70
2022/01/13 05:03:43;;;;;;;;;;;;;;;-1.67;100.00;102933.00;5000799;28;19928;-70
2022/01/13 05:06:26;;;;;;;;;;;;;;;-1.67;100.00;102929.56;5015717;28;19975;-70
2022/01/13 05:09:10;;;;;;;;;;;;;;;-1.67;100.00;102930.41;5015424;28;19983;-70
2022/01/13 05:11:54;;;;;;;;;;;;;;;-1.65;100.00;102935.63;5000060;28;19975;-70
2022/01/13 05:14:38;;;;;;;;;;;;;;;-1.62;100.00;102939.13;5015181;28;19936;-70
2022/01/13 05:20:28;;;;;;;;;;;;;;;-1.58;100.00;102940.84;5014778;28;20419;-70
2022/01/13 05:23:12;;;;;;;;;;;;;;;-1.57;100.00;102939.13;5000656;28;19967;-69
2022/01/13 05:25:56;;;;;;;;;;;;;;;-1.51;100.00;102933.84;5015132;28;19988;-70
2022/01/13 05:28:41;;;;;;;;;;;;;;;-1.45;100.00;102933.84;5015072;28;20349;-69
2022/01/13 05:31:25;;;;;;;;;;;;;;;-1.40;100.00;102934.69;5000227;28;20372;-70
2022/01/13 05:34:09;;;;;;;;;;;;;;;-1.40;100.00;102932.06;5014804;28;20387;-70
2022/01/13 05:36:52;;;;;;;;;;;;;;;-1.30;100.00;102939.91;4985591;28;19924;-70
2022/01/13 05:39:36;;;;;;;;;;;;;;;-1.33;100.00;102939.03;5014260;28;19920;-72
2022/01/13 05:42:20;;;;;;;;;;;;;;;-1.30;100.00;102933.78;4999509;28;19964;-70
2022/01/13 05:45:06;;;;;;;;;;;;;;;-1.34;100.00;102937.28;4999616;28;19967;-69
2022/01/13 05:47:50;;;;;;;;;;;;;;;-1.36;100.00;102952.13;5013121;28;19959;-70
2022/01/13 05:50:34;;;;;;;;;;;;;;;-1.38;100.00;102940.78;5013970;28;19923;-70
2022/01/13 05:53:18;;;;;;;;;;;;;;;-1.39;100.00;102939.91;4999193;28;20265;-70
2022/01/13 05:56:02;;;;;;;;;;;;;;;-1.37;100.00;102947.78;5014749;28;19934;-70
2022/01/13 05:58:46;;;;;;;;;;;;;;;-1.40;100.00;102937.28;4999450;28;19936;-70
2022/01/13 06:01:30;;;;;;;;;;;;;;;-1.42;100.00;102942.56;5014009;28;19939;-70
2022/01/13 06:04:13;;;;;;;;;;;;;;;-1.40;100.00;102943.41;5014022;28;20300;-70
2022/01/13 06:06:58;;;;;;;;;;;;;;;-1.41;100.00;102940.78;5014233;28;19920;-70
2022/01/13 06:09:42;;;;;;;;;;;;;;;-1.41;100.00;102935.56;5014137;28;20004;-69
2022/01/13 06:12:33;;;;;;;;;;;;;;;-1.43;100.00;102950.41;4999110;28;19964;-70
2022/01/13 06:15:18;;;;;;;;;;;;;;;-1.43;100.00;102953.00;5014533;28;19940;-70
2022/01/13 06:18:02;;;;;;;;;;;;;;;-1.39;100.00;102950.38;5014189;28;19936;-70
2022/01/13 06:20:46;;;;;;;;;;;;;;;-1.33;100.00;102954.72;5013794;28;19936;-70
2022/01/13 06:23:30;;;;;;;;;;;;;;;-1.31;100.00;102959.09;5014246;28;19920;-70
2022/01/13 06:26:14;;;;;;;;;;;;;;;-1.26;100.00;102956.47;5013705;28;20342;-69
2022/01/13 06:28:57;;;;;;;;;;;;;;;-1.20;100.00;102957.31;4999485;28;19924;-70
2022/01/13 06:31:41;;;;;;;;;;;;;;;-1.15;100.00;102959.91;4999097;28;20363;-70
2022/01/13 06:34:25;;;;;;;;;;;;;;;-1.10;100.00;102958.13;4998849;28;19963;-70
2022/01/13 06:37:09;;;;;;;;;;;;;;;-1.02;100.00;102962.47;4998375;28;19939;-70
2022/01/13 06:39:53;;;;;;;;;;;;;;;-0.95;100.00;102968.53;4998527;28;20404;-70
2022/01/13 06:42:37;;;;;;;;;;;;;;;-0.88;100.00;102967.63;5013445;28;20380;-70
2022/01/13 06:45:21;;;;;;;;;;;;;;;-0.81;100.00;102975.47;4998387;28;19924;-70
2022/01/13 06:48:05;;;;;;;;;;;;;;;-0.70;100.00;102980.63;4998729;28;19920;-70
2022/01/13 06:50:49;;;;;;;;;;;;;;;-0.58;100.00;102983.16;5013163;28;19972;-70
2022/01/13 06:53:33;;;;;;;;;;;;;;;-0.43;100.00;102986.56;4998423;28;19956;-70
2022/01/13 06:56:17;;;;;;;;;;;;;;;-0.20;100.00;102983.78;5013616;28;19920;-70
2022/01/13 06:59:08;;;;;;;;;;;;;;;-0.06;100.00;102982.81;5000911;28;19928;-70
2022/01/13 07:01:52;;;;;;;;;;;;;;;0.05;100.00;102980.97;5017387;28;20375;-70
2022/01/13 07:04:35;;;;;;;;;;;;;;;0.14;100.00;102989.63;5017200;28;19975;-70
2022/01/13 07:07:19;;;;;;;;;;;;;;;0.20;100.00;102989.56;5002196;28;19936;-70
2022/01/13 07:10:04;;;;;;;;;;;;;;;0.26;100.00;102992.16;5017047;28;20233;-70
2022/01/13 07:12:47;;;;;;;;;;;;;;;0.42;100.00;102977.97;5002224;28;20497;-70
2022/01/13 07:15:32;;;;;;;;;;;;;;;0.48;100.00;102983.19;4988610;28;19972;-70
2022/01/13 07:18:16;;;;;;;;;;;;;;;0.37;100.00;102985.06;5002168;28;19921;-70
2022/01/13 07:21:00;;;;;;;;;;;;;;;0.32;100.00;102980.72;5016697;28;19920;-70
2022/01/13 07:23:44;;;;;;;;;;;;;;;0.33;100.00;102987.72;4988252;28;20036;-70
2022/01/13 07:26:28;;;;;;;;;;;;;;;0.33;100.00;102991.19;5001952;28;20393;-70
2022/01/13 07:29:12;;;;;;;;;;;;;;;0.37;100.00;102999.91;5016973;28;19967;-69
2022/01/13 07:31:56;;;;;;;;;;;;;;;0.37;100.00;103000.78;5001899;28;20412;-70
2022/01/13 07:34:40;;;;;;;;;;;;;;;0.40;100.00;103000.75;5001905;28;19936;-70
2022/01/13 07:37:24;;;;;;;;;;;;;;;0.32;100.00;103002.56;4988222;28;19920;-70
2022/01/13 07:40:13;;;;;;;;;;;;;;;0.37;100.00;103007.78;5016314;28;19940;-71
2022/01/13 07:42:57;;;;;;;;;;;;;;;0.32;100.00;103002.56;5002154;28;19921;-70
2022/01/13 07:45:41;;;;;;;;;;;;;;;0.32;100.00;103001.72;5016495;28;20226;-70
2022/01/13 07:48:25;;;;;;;;;;;;;;;0.27;100.00;103001.75;5016708;28;19920;-70
2022/01/13 07:51:09;;;;;;;;;;;;;;;0.29;100.00;102997.38;5016393;28;19920;-70
2022/01/13 07:53:53;;;;;;;;;;;;;;;0.23;100.00;103005.28;4987575;28;19920;-69
2022/01/13 07:56:36;;;;;;;;;;;;;;;0.23;100.00;103004.44;5001446;28;20016;-71
2022/01/13 07:59:21;;;;;;;;;;;;;;;0.20;100.00;103005.31;5015852;28;19931;-70
2022/01/13 08:02:05;;;;;;;;;;;;;;;0.17;100.00;103009.72;5001208;28;19919;-70
2022/01/13 08:04:49;;;;;;;;;;;;;;;0.14;100.00;103007.97;5015858;28;19924;-70
2022/01/13 08:07:33;;;;;;;;;;;;;;;0.28;100.00;103011.38;5015846;28;19920;-70
2022/01/13 08:10:16;;;;;;;;;;;;;;;0.35;100.00;102999.91;5000067;28;20289;-70
2022/01/13 08:13:00;;;;;;;;;;;;;;;0.47;100.00;102999.81;5001521;28;20223;-70
2022/01/13 08:15:44;;;;;;;;;;;;;;;0.47;100.00;102999.81;5001068;28;20386;-70
2022/01/13 08:21:31;;;;;;;;;;;;;;;0.55;100.00;102997.13;5003683;28;20011;-68
2022/01/13 08:24:15;;;;;;;;;;;;;;;0.66;100.00;102995.25;5015417;28;20300;-70
2022/01/13 08:26:59;;;;;;;;;;;;;;;0.74;100.00;102998.66;5015942;28;19939;-70
2022/01/13 08:29:43;;;;;;;;;;;;;;;0.83;100.00;102996.78;5015377;28;19963;-70
2022/01/13 08:32:26;;;;;;;;;;;;;;;0.89;100.00;102994.09;5000493;28;19920;-70
2022/01/13 08:35:10;;;;;;;;;;;;;;;1.08;100.00;102992.13;5015589;28;20027;-70
2022/01/13 08:37:56;;;;;;;;;;;;;;;1.06;100.00;102983.38;5015282;28;20016;-70
2022/01/13 08:40:40;;;;;;;;;;;;;;;1.33;100.00;102986.53;5015199;28;19920;-70
2022/01/13 08:43:25;;;;;;;;;;;;;;;1.80;100.00;102986.72;5000179;28;20335;-70
2022/01/13 08:46:08;;;;;;;;;;;;;;;2.66;100.00;102983.44;4986427;28;19968;-70
2022/01/13 08:48:52;;;;;;;;;;;;;;;3.52;100.00;102971.94;5000086;28;19979;-70
2022/01/13 08:51:36;;;;;;;;;;;;;;;4.27;100.00;102964.81;5015195;28;19960;-70
2022/01/13 08:54:21;;;;;;;;;;;;;;;5.37;100.00;102964.28;5000403;28;19983;-70
2022/01/13 08:57:06;;;;;;;;;;;;;;;6.33;95.83;102958.47;5000028;28;19920;-71
2022/01/13 08:59:50;;;;;;;;;;;;;;;7.24;86.68;102956.88;4999958;28;19983;-71
2022/01/13 09:02:34;;;;;;;;;;;;;;;7.61;78.11;102957.16;5014769;28;19939;-70
2022/01/13 09:05:18;;;;;;;;;;;;;;;7.62;75.76;102958.91;4999956;28;20059;-70
2022/01/13 09:08:03;;;;;;;;;;;;;;;8.43;69.39;102947.53;5000055;28;19936;-71
2022/01/13 09:10:47;;;;;;;;;;;;;;;8.83;66.09;102952.81;4986111;28;19921;-69
2022/01/13 09:13:36;;;;;;;;;;;;;;;9.74;63.92;102947.59;5014623;28;19936;-71
2022/01/13 09:16:20;;;;;;;;;;;;;;;9.53;62.59;102949.50;4986752;28;19920;-71
2022/01/13 09:19:11;;;;;;;;;;;;;;;9.88;59.40;102953.97;5014862;28;19959;-71
2022/01/13 09:21:55;;;;;;;;;;;;;;;9.69;60.01;102953.16;4999278;28;20449;-71
2022/01/13 09:24:40;;;;;;;;;;;;;;;10.73;55.29;102951.38;5014424;28;19927;-71
2022/01/13 09:27:24;;;;;;;;;;;;;;;10.46;55.93;102959.00;4999469;28;19924;-71
2022/01/13 09:30:12;;;;;;;;;;;;;;;11.02;54.75;102962.22;4999284;28;20484;-71
2022/01/13 09:32:56;;;;;;;;;;;;;;;12.09;53.33;102973.06;5014246;28;20035;-71
2022/01/13 09:35:40;;;;;;;;;;;;;;;12.65;50.56;102969.72;4986102;28;20273;-71
2022/01/13 09:38:24;;;;;;;;;;;;;;;13.35;47.37;102970.66;4999435;28;19940;-71
2022/01/13 09:41:08;;;;;;;;;;;;;;;13.10;47.60;102965.13;4985986;28;19920;-71
2022/01/13 09:43:51;;;;;;;;;;;;;;;14.14;47.51;102956.47;4985559;28;19929;-67
2022/01/13 09:46:35;;;;;;;;;;;;;;;14.35;45.13;102965.78;4999047;28;20387;-71
2022/01/13 09:49:19;;;;;;;;;;;;;;;15.38;43.61;102965.63;5014123;28;20415;-70
2022/01/13 09:52:03;;;;;;;;;;;;;;;16.29;41.55;102951.50;4999500;28;19924;-69
2022/01/13 09:54:48;;;;;;;;;;;;;;;15.85;39.75;102939.69;4999545;28;20016;-71
2022/01/13 09:57:32;;;;;;;;;;;;;;;16.44;41.07;102938.75;4999256;28;19987;-69
2022/01/13 10:00:18;;;;;;;;;;;;;;;17.28;39.04;102937.41;4985414;28;19979;-71
2022/01/13 10:03:08;;;;;;;;;;;;;;;17.79;38.36;102939.44;4985222;28;19989;-71
2022/01/13 10:05:54;;;;;;;;;;;;;;;17.61;36.63;102932.84;5000539;28;19925;-68
2022/01/13 10:08:49;;;;;;;;;;;;;;;17.21;37.62;102945.09;4998631;28;19990;-71
2022/01/13 10:11:34;;;;;;;;;;;;;;;18.07;36.50;102932.59;4998492;28;20512;-68
2022/01/13 10:17:12;;;;;;;;;;;;;;;18.82;35.35;102933.22;5013794;28;20339;-70
2022/01/13 10:19:57;;;;;;;;;;;;;;;18.68;35.77;102943.50;4985287;28;19927;-70
2022/01/13 10:22:41;;;;;;;;;;;;;;;19.58;33.92;102940.81;4998770;28;19921;-70
2022/01/13 10:25:29;;;;;;;;;;;;;;;20.49;31.75;102951.19;5013544;28;20416;-70
2022/01/13 10:28:20;;;;;;;;;;;;;;;19.67;32.34;102937.25;5013829;28;19971;-70
2022/01/13 10:31:04;;;;;;;;;;;;;;;18.76;33.43;102949.09;5013207;28;19928;-70
2022/01/13 10:33:48;;;;;;;;;;;;;;;19.93;34.25;102943.88;4997809;28;19921;-70
2022/01/13 10:36:32;;;;;;;;;;;;;;;19.59;32.31;102940.66;4998700;28;19920;-70
2022/01/13 10:39:16;;;;;;;;;;;;;;;19.28;32.72;102947.13;4998528;28;19928;-69
2022/01/13 10:42:20;;;;;;;;;;;;;;;20.56;32.82;102946.06;5013236;28;19920;-69
2022/01/13 10:45:04;;;;;;;;;;;;;;;20.57;31.37;102945.06;5013659;28;19943;-70
2022/01/13 10:47:49;;;;;;;;;;;;;;;20.95;32.09;102939.59;5013169;28;20026;-70
2022/01/13 10:50:35;;;;;;;;;;;;;;;20.27;30.11;102937.94;4998262;28;19920;-69
2022/01/13 10:53:18;;;;;;;;;;;;;;;20.32;31.32;102941.06;5013500;28;19978;-70
2022/01/13 10:56:04;;;;;;;;;;;;;;;19.14;31.49;102949.28;5013369;28;19984;-70
2022/01/13 10:58:52;;;;;;;;;;;;;;;19.25;32.11;102950.09;5012924;28;19944;-70
2022/01/13 11:01:36;;;;;;;;;;;;;;;19.81;34.04;102945.84;5013257;28;19983;-70
2022/01/13 11:04:20;;;;;;;;;;;;;;;19.91;31.37;102944.00;4998272;28;19983;-70
2022/01/13 11:07:17;;;;;;;;;;;;;;;20.83;30.24;102940.72;4998052;28;19924;-70
2022/01/13 11:10:03;;;;;;;;;;;;;;;21.99;28.80;102928.22;4998089;28;19964;-69
2022/01/13 11:12:55;;;;;;;;;;;;;;;21.45;29.43;102939.09;5012971;28;20419;-70
2022/01/13 11:15:45;;;;;;;;;;;;;;;20.60;31.05;102939.38;4999394;28;19982;-70
2022/01/13 11:18:30;;;;;;;;;;;;;;;20.84;30.17;102935.13;4999271;28;19976;-70
2022/01/13 11:21:14;;;;;;;;;;;;;;;20.22;30.90;102936.66;5013324;28;20439;-70
2022/01/13 11:23:58;;;;;;;;;;;;;;;20.60;29.83;102933.94;5012802;28;20004;-69
2022/01/13 11:26:42;;;;;;;;;;;;;;;19.83;31.45;102926.75;5012811;28;19975;-70
2022/01/13 11:29:26;;;;;;;;;;;;;;;19.15;30.68;102945.59;4997996;28;19948;-70
2022/01/13 11:32:11;;;;;;;;;;;;;;;19.69;32.02;102930.72;4998065;28;20277;-69
2022/01/13 11:34:55;;;;;;;;;;;;;;;19.86;32.07;102931.88;4997937;28;19919;-69
2022/01/13 11:37:39;;;;;;;;;;;;;;;20.04;31.70;102930.25;5012788;28;19920;-70
2022/01/13 11:40:34;;;;;;;;;;;;;;;20.68;29.94;102920.50;4997997;28;19925;-70
2022/01/13 11:43:23;;;;;;;;;;;;;;;19.94;31.65;102922.09;5013110;28;19921;-69
2022/01/13 11:46:10;;;;;;;;;;;;;;;18.67;32.46;102923.72;5001373;28;19984;-70
2022/01/13 11:49:09;;;;;;;;;;;;;;;19.09;32.28;102929.94;5001425;28;19955;-70
2022/01/13 11:51:59;;;;;;;;;;;;;;;18.31;33.86;102920.59;4989645;28;19968;-70
2022/01/13 11:54:43;;;;;;;;;;;;;;;18.27;35.07;102916.44;5018973;28;20083;-70
2022/01/13 11:57:27;;;;;;;;;;;;;;;18.06;34.65;102912.84;5001969;28;20366;-69
2022/01/13 12:00:38;;;;;;;;;;;;;;;17.66;35.08;102914.44;5001225;28;19996;-71
2022/01/13 12:03:25;;;;;;;;;;;;;;;17.51;34.84;102910.28;5016721;28;19952;-69
2022/01/13 12:06:09;;;;;;;;;;;;;;;17.36;35.99;102908.00;5016417;28;19939;-70
2022/01/13 12:08:56;;;;;;;;;;;;;;;16.80;36.79;102904.41;5001068;28;19919;-70
2022/01/13 12:11:46;;;;;;;;;;;;;;;16.83;38.12;102903.31;4987541;28;19940;-68
2022/01/13 12:14:30;;;;;;;;;;;;;;;17.06;37.06;102905.91;5016009;28;20325;-69
2022/01/13 12:17:26;;;;;;;;;;;;;;;17.07;38.32;102901.34;5015638;28;19929;-70
2022/01/13 12:20:19;;;;;;;;;;;;;;;18.15;35.55;102901.28;5002321;28;19979;-70
2022/01/13 12:23:15;;;;;;;;;;;;;;;18.32;35.44;102895.31;5015870;28;20482;-70
2022/01/13 12:26:00;;;;;;;;;;;;;;;17.75;36.07;102888.53;4989086;28;19920;-70
2022/01/13 12:28:48;;;;;;;;;;;;;;;17.00;36.30;102889.38;5000556;28;20031;-70
2022/01/13 12:31:32;;;;;;;;;;;;;;;17.70;35.94;102880.81;5000773;28;19999;-69
2022/01/13 12:34:39;;;;;;;;;;;;;;;17.26;36.68;102883.59;5015443;28;20003;-70
2022/01/13 12:37:23;;;;;;;;;;;;;;;17.07;35.60;102869.88;5015038;28;19921;-70
2022/01/13 12:40:12;;;;;;;;;;;;;;;16.92;37.56;102871.13;4986887;28;20372;-70
2022/01/13 12:42:56;;;;;;;;;;;;;;;16.76;37.99;102870.63;5000692;28;19921;-70
2022/01/13 12:45:40;;;;;;;;;;;;;;;16.03;39.44;102861.13;5000442;28;19920;-69
2022/01/13 12:48:24;;;;;;;;;;;;;;;16.03;40.69;102857.56;5000474;28;20012;-70
2022/01/13 12:51:12;;;;;;;;;;;;;;;15.74;39.05;102857.09;5000117;28;19921;-69
2022/01/13 12:53:56;;;;;;;;;;;;;;;15.28;40.91;102848.97;5000250;28;19956;-70
2022/01/13 12:56:40;;;;;;;;;;;;;;;15.12;41.43;102853.75;5014700;28;19936;-70
2022/01/13 12:59:24;;;;;;;;;;;;;;;14.04;42.83;102850.72;4999763;28;19975;-70
2022/01/13 13:02:08;;;;;;;;;;;;;;;14.10;44.01;102855.69;5014879;28;19979;-68
2022/01/13 13:04:52;;;;;;;;;;;;;;;13.67;43.40;102849.66;5000068;28;20284;-70
2022/01/13 13:07:36;;;;;;;;;;;;;;;13.28;43.81;102852.28;5015266;28;19920;-70
2022/01/13 13:10:20;;;;;;;;;;;;;;;13.27;45.54;102853.25;5000000;28;19920;-69
2022/01/13 13:13:04;;;;;;;;;;;;;;;13.37;45.80;102850.84;4999978;28;20335;-68
2022/01/13 13:15:57;;;;;;;;;;;;;;;13.19;46.19;102846.66;4999852;28;19924;-67
2022/01/13 13:18:41;;;;;;;;;;;;;;;12.95;47.19;102843.75;5016021;28;20016;-67
2022/01/13 13:21:26;;;;;;;;;;;;;;;12.77;46.58;102849.38;4987889;28;20383;-68
2022/01/13 13:24:10;;;;;;;;;;;;;;;13.03;47.23;102843.25;5014666;28;19920;-67
2022/01/13 13:26:54;;;;;;;;;;;;;;;12.69;46.74;102840.97;5014376;28;20003;-66
2022/01/13 13:29:38;;;;;;;;;;;;;;;12.72;47.44;102846.09;4999386;28;19920;-68
2022/01/13 13:32:22;;;;;;;;;;;;;;;12.14;47.42;102837.28;5014840;28;19921;-67
2022/01/13 13:35:14;;;;;;;;;;;;;;;11.65;48.91;102837.59;4999503;28;20392;-67
2022/01/13 13:37:57;;;;;;;;;;;;;;;11.40;49.86;102832.81;4999354;28;19936;-67
2022/01/13 13:40:44;;;;;;;;;;;;;;;11.01;49.94;102835.03;5014610;28;19936;-68
2022/01/13 13:43:32;;;;;;;;;;;;;;;11.09;50.81;102827.47;5014067;28;19999;-68
2022/01/13 13:46:16;;;;;;;;;;;;;;;11.25;50.76;102822.97;4999341;28;19924;-68
2022/01/13 13:48:59;;;;;;;;;;;;;;;11.13;51.17;102829.00;5014236;28;19939;-68
2022/01/13 13:51:43;;;;;;;;;;;;;;;11.28;51.19;102812.09;5014050;28;19998;-68
2022/01/13 13:54:28;;;;;;;;;;;;;;;11.23;50.75;102816.88;5014110;28;19923;-68
2022/01/13 13:57:13;;;;;;;;;;;;;;;11.19;51.32;102815.34;5014080;28;19920;-68
2022/01/13 13:59:57;;;;;;;;;;;;;;;11.43;50.50;102813.91;5013875;28;20292;-69
2022/01/13 14:02:47;;;;;;;;;;;;;;;11.15;51.01;102808.44;5014044;28;19967;-69
2022/01/13 14:05:37;;;;;;;;;;;;;;;10.73;52.11;102824.16;4999920;28;19932;-68
2022/01/13 14:08:21;;;;;;;;;;;;;;;10.40;54.11;102812.66;5012984;28;19968;-67
2022/01/13 14:11:05;;;;;;;;;;;;;;;9.96;54.70;102809.69;5013527;28;19921;-68
2022/01/13 14:13:49;;;;;;;;;;;;;;;9.80;55.99;102801.63;5013817;28;19920;-69
2022/01/13 14:16:34;;;;;;;;;;;;;;;9.56;56.61;102791.38;4998830;28;19963;-69
2022/01/13 14:19:18;;;;;;;;;;;;;;;9.56;57.21;102797.53;4998802;28;19920;-68
2022/01/13 14:22:02;;;;;;;;;;;;;;;9.47;57.17;102786.50;5013334;28;20354;-68
2022/01/13 14:24:45;;;;;;;;;;;;;;;9.45;58.41;102783.03;5013262;28;20025;-68
2022/01/13 14:27:29;;;;;;;;;;;;;;;9.31;60.36;102782.88;4998771;28;19920;-66